Архив погоды в Кемчуге

Метеограмма Кемчуг
Четверг, 16 Августа
Время местн. Темп Ветер Видим Явления Облачность нижн/средн/верх Атм. давл. Влжн Точка росы ВНГО R Сост. почвы Tg s
Напр Скр Прв ур.ст ур.м изм
04:00 +6.7° штиль 0 - 50 км - ясно 735 765 -0.2 97% +6.2° более 2.5 км - - - -
01:00 +9.2° В 1 - 50 км - ясно 735 765 0 96% +8.6° более 2.5 км - - - -
Среда, 15 Августа
Время местн. Темп Ветер Видим Явления Облачность нижн/средн/верх Атм. давл. Влжн Точка росы ВНГО R Сост. почвы Tg s
Напр Скр Прв ур.ст ур.м изм
22:00 +14.1° Ю 2 - 50 км - ясно 735 765 +0.1 75% +9.8° более 2.5 км - - - -
19:00 +18.3° З 2 - 20 км - переменная облачность 735 764 -0.2 57% +9.7° 1 км 0 - - -
16:00 +20.5° З 4 - 20 км - переменная облачность 735 764 -0.5 44% +7.9° 1 км - - - -
13:00 +19.3° З 4 - 20 км - переменная облачность 736 765 -0.5 46% +7.4° 1.5 км - - - -
10:00 +15.8° З 2 - 20 км - переменная облачность 736 766 +0.1 71% +10.5° 1 км - - - -
07:00 +8.4° Ю,Ю-З 1 - 20 км - переменная облачность 736 766 +0.5 97% +8° 1 км 0 Влажная (без луж) +8° -
04:00 +9.8° Ю-З 1 - 4.6 км дымка переменная облачность 736 766 0 97% +9.4° 1 км - - - -
01:00 +11.5° З 1 - 50 км - переменная облачность 736 765 +0.2 96% +10.9° 1 км - - - -
Вторник, 14 Августа
Время местн. Темп Ветер Видим Явления Облачность нижн/средн/верх Атм. давл. Влжн Точка росы ВНГО R Сост. почвы Tg s
Напр Скр Прв ур.ст ур.м изм
22:00 +14.4° З,С-З 2 - 50 км - преимущественно облачно 736 765 +0.6 87% +12.3° 1 км - - - -
19:00 +16.7° С 3 - 20 км - преимущественно облачно 735 764 +0.5 73% +11.8° 1 км 0 - - -
16:00 +17.9° С 2 - 20 км - преимущественно облачно 735 763 +0.5 66% +11.4° 1 км - - - -
13:00 +19° С 2 - 20 км - облачно с прояснениями 734 763 +0.1 64% +12.1° 1 км - - - -
10:00 +15.4° С-З 2 - 20 км - облачно 734 763 +0.8 92% +14.1° 1 км - - - -
07:00 +13.5° З,С-З 1 - 2 км ливневый дождь облачно 733 762 +1 97% +13.1° 1 км 7 Сырая (есть малые или большие лужи) +14° -
04:00 +13.5° С 1 - 6 км слабый ливневый дождь облачно 732 761 +0.6 97% +13.1° 1 км - - - -
01:00 +13.5° З,Ю-З 1 - 50 км небо без изменений {ливневые осадки} облачно 732 761 +0.5 97% +13° 1 км - - - -
Понедельник, 13 Августа
Время местн. Темп Ветер Видим Явления Облачность нижн/средн/верх Атм. давл. Влжн Точка росы ВНГО R Сост. почвы Tg s
Напр Скр Прв ур.ст ур.м изм
22:00 +14.7° З,С-З 2 - 15 км слабый ливневый дождь облачно 731 760 +1.5 96% +14° 1 км - - - -
19:00 +16.7° З,С-З 3 - 20 км - преимущественно облачно 730 758 +1.4 84% +14° 1 км 0 - - -
16:00 +18.1° З,С-З 3 - 20 км - облачно с прояснениями 728 757 +0.3 73% +13.1° 1 км - - - -
13:00 +17.9° З 3 - 20 км - облачно с прояснениями 728 757 +0.8 76% +13.7° 1 км - - - -
10:00 +16.2° Ю 1 - 20 км - облачно с прояснениями 727 756 +1 87% +14° 1 км - - - -
07:00 +12.4° В 1 - 20 км - переменная облачность 726 755 +0.8 97% +12° 1 км 0 Сырая (есть малые или большие лужи) +12° -
04:00 +12.9° Ю-В 1 - 4.7 км дымка облачно с прояснениями 725 755 +0.4 97% +12.5° 1 км - - - -
01:00 +13.5° З 1 - 4.6 км дымка {ливневые осадки} облачно 725 754 +1.1 97% +13.1° 1 км - - - -